^^
Your Local Weather - Clay, NY Station Historical Data
Daily Summary for May 10, 2017 Units:  Metric    English   Both
« Previous Day
Next Day »
Daily Weekly Monthly Yearly Custom
  High: Low: Average:
Temperature: 11.9 °C -1.3 °C 5.8 °C
Dew Point: 2.4 °C -2.6 °C -0.1 °C
Humidity: 93% 46% 68%
Wind Speed: 4.8km/h 0km/h 1.4km/h
Wind Gust: 9.7km/h - -
Wind- - SW
Pressure: 1018.8 hPa 1016.8 hPa -
Precipitation: 0 mm    
Historical Graphs
 
 
Tabular Data for May 10, 2017
Time Temperature Dew Point Pressure Wind Wind Speed Wind Gust Humidity Rainfall Rate (Hourly) solar
00:02 2.1 °C -0.6 °C 1016.8 hPa Calm     83% 0 mm 0 W/m2
00:08 2 °C -0.6 °C 1016.8 hPa Calm     83% 0 mm 0 W/m2
00:14 1.9 °C -0.6 °C 1016.8 hPa Calm     84% 0 mm 0 W/m2
00:20 1.8 °C -0.6 °C 1016.8 hPa Calm     84% 0 mm 0 W/m2
00:26 1.7 °C -0.7 °C 1016.8 hPa Calm     84% 0 mm 0 W/m2
00:32 1.7 °C -0.7 °C 1016.8 hPa Calm     84% 0 mm 0 W/m2
00:38 1.6 °C -0.7 °C 1016.8 hPa Calm     85% 0 mm 0 W/m2
00:46 1.4 °C -0.8 °C 1016.8 hPa Calm     85% 0 mm 0 W/m2
00:52 1.2 °C -1 °C 1016.8 hPa Calm     85% 0 mm 0 W/m2
00:58 1.2 °C -0.9 °C 1016.8 hPa Calm     86% 0 mm 0 W/m2
01:04 1.2 °C -0.9 °C 1016.8 hPa Calm   3.2 km/h 86% 0 mm 0 W/m2
01:10 1.2 °C -0.7 °C 1016.8 hPa Calm     87% 0 mm 0 W/m2
01:16 1.2 °C -0.8 °C 1016.8 hPa Calm     87% 0 mm 0 W/m2
01:22 1.1 °C -0.9 °C 1016.8 hPa Calm     87% 0 mm 0 W/m2
01:28 0.9 °C -1.1 °C 1016.8 hPa Calm     87% 0 mm 0 W/m2
01:34 0.8 °C -1.1 °C 1016.8 hPa Calm     87% 0 mm 0 W/m2
01:40 0.7 °C -1.2 °C 1016.8 hPa Calm     87% 0 mm 0 W/m2
01:46 0.6 °C -1.2 °C 1016.8 hPa Calm     88% 0 mm 0 W/m2
01:52 0.6 °C -1.2 °C 1016.8 hPa Calm     88% 0 mm 0 W/m2
01:58 0.4 °C -1.3 °C 1016.8 hPa Calm     88% 0 mm 0 W/m2
02:04 0.3 °C -1.4 °C 1016.8 hPa Calm     88% 0 mm 0 W/m2
02:10 0.3 °C -1.5 °C 1016.8 hPa Calm     88% 0 mm 0 W/m2
02:16 0.2 °C -1.4 °C 1016.8 hPa Calm     89% 0 mm 0 W/m2
02:22 0.2 °C -1.4 °C 1016.8 hPa Calm     89% 0 mm 0 W/m2
02:28 0.2 °C -1.4 °C 1016.8 hPa Calm     89% 0 mm 0 W/m2
02:34 0.1 °C -1.5 °C 1016.8 hPa Calm     89% 0 mm 0 W/m2
02:40 0.1 °C -1.6 °C 1016.8 hPa Calm     89% 0 mm 0 W/m2
02:46 0 °C -1.6 °C 1016.8 hPa Calm     89% 0 mm 0 W/m2
02:52 -0.1 °C -1.6 °C 1016.8 hPa Calm     90% 0 mm 0 W/m2
02:58 -0.2 °C -1.6 °C 1016.8 hPa Calm     90% 0 mm 0 W/m2
03:04 -0.3 °C -1.7 °C 1016.8 hPa Calm     90% 0 mm 0 W/m2
03:10 -0.4 °C -1.9 °C 1016.8 hPa Calm     90% 0 mm 0 W/m2
03:16 -0.6 °C -2 °C 1016.8 hPa Calm     90% 0 mm 0 W/m2
03:22 -0.6 °C -2 °C 1016.8 hPa Calm     90% 0 mm 0 W/m2
03:28 -0.7 °C -2.1 °C 1016.8 hPa Calm     90% 0 mm 0 W/m2
03:34 -0.7 °C -2.2 °C 1016.8 hPa Calm     90% 0 mm 0 W/m2
03:40 -0.7 °C -2.1 °C 1016.8 hPa Calm     90% 0 mm 0 W/m2
03:46 -0.7 °C -2.1 °C 1016.8 hPa Calm     90% 0 mm 0 W/m2
03:52 -0.7 °C -2.2 °C 1016.8 hPa Calm     90% 0 mm 0 W/m2
03:58 -0.8 °C -2.1 °C 1016.8 hPa Calm     91% 0 mm 0 W/m2
04:04 -0.8 °C -2.1 °C 1016.8 hPa Calm     91% 0 mm 0 W/m2
04:10 -0.9 °C -2.2 °C 1016.8 hPa Calm     91% 0 mm 0 W/m2
04:16 -1 °C -2.3 °C 1016.8 hPa Calm     91% 0 mm 0 W/m2
04:22 -1.1 °C -2.3 °C 1016.8 hPa Calm     91% 0 mm 0 W/m2
04:28 -1.1 °C -2.3 °C 1016.8 hPa Calm     91% 0 mm 0 W/m2
04:34 -1.1 °C -2.3 °C 1017.2 hPa Calm     91% 0 mm 0 W/m2
04:40 -1.1 °C -2.4 °C 1017.2 hPa Calm     91% 0 mm 0 W/m2
04:46 -1.2 °C -2.4 °C 1017.2 hPa Calm     91% 0 mm 0 W/m2
04:52 -1.2 °C -2.5 °C 1017.2 hPa Calm     91% 0 mm 0 W/m2
04:58 -1.2 °C -2.4 °C 1017.2 hPa Calm     91% 0 mm 0 W/m2
05:04 -1.2 °C -2.4 °C 1017.5 hPa Calm     91% 0 mm 0 W/m2
05:10 -1.1 °C -2.4 °C 1017.5 hPa Calm     91% 0 mm 0 W/m2
05:16 -1.1 °C -2.4 °C 1017.5 hPa Calm     91% 0 mm 0 W/m2
05:22 -1.1 °C -2.4 °C 1017.5 hPa Calm     91% 0 mm 0 W/m2
05:28 -1.2 °C -2.4 °C 1017.5 hPa Calm     91% 0 mm 0 W/m2
05:34 -1.2 °C -2.3 °C 1017.5 hPa Calm     92% 0 mm 0 W/m2
05:40 -1.2 °C -2.5 °C 1017.5 hPa Calm     91% 0 mm 0 W/m2
05:46 -1.3 °C -2.6 °C 1017.5 hPa Calm     91% 0 mm 0 W/m2
05:52 -1.3 °C -2.4 °C 1017.5 hPa Calm     92% 0 mm 7 W/m2
05:58 -1.3 °C -2.4 °C 1017.8 hPa Calm     92% 0 mm 9 W/m2
06:04 -1.2 °C -2.3 °C 1017.8 hPa Calm     92% 0 mm 11 W/m2
06:10 -1.2 °C -2.3 °C 1017.8 hPa Calm     92% 0 mm 12 W/m2
06:16 -1.1 °C -2.2 °C 1017.8 hPa Calm     92% 0 mm 18 W/m2
06:22 -1 °C -2.1 °C 1017.8 hPa Calm     92% 0 mm 26 W/m2
06:28 -0.9 °C -2.1 °C 1018.2 hPa Calm     92% 0 mm 54 W/m2
06:34 -0.6 °C -1.7 °C 1018.2 hPa Calm     92% 0 mm 76 W/m2
06:40 -0.3 °C -1.5 °C 1018.2 hPa Calm     92% 0 mm 118 W/m2
06:46 0.4 °C -0.7 °C 1018.2 hPa Calm     92% 0 mm 142 W/m2
06:52 0.9 °C -0.1 °C 1018.2 hPa Calm     93% 0 mm 155 W/m2
06:58 1.1 °C -0.1 °C 1018.5 hPa Calm     92% 0 mm 163 W/m2
07:04 1.4 °C 0.2 °C 1018.5 hPa Calm     92% 0 mm 176 W/m2
07:10 1.8 °C 0.8 °C 1018.5 hPa Calm     93% 0 mm 190 W/m2
07:16 2.2 °C 1 °C 1018.5 hPa Calm     92% 0 mm 47 W/m2
07:22 1.9 °C 0.8 °C 1018.8 hPa Calm     92% 0 mm 81 W/m2
07:28 2 °C 0.8 °C 1018.8 hPa Calm     92% 0 mm 295 W/m2
07:34 2.4 °C 1.2 °C 1018.5 hPa Calm     92% 0 mm 272 W/m2
07:40 3.1 °C 1.7 °C 1018.5 hPa Calm   1.6 km/h 91% 0 mm 278 W/m2
07:46 3.4 °C 1.9 °C 1018.5 hPa North 1.6 km/h 1.6 km/h 90% 0 mm 295 W/m2
07:52 3.7 °C 1.7 °C 1018.8 hPa North 1.6 km/h 1.6 km/h 87% 0 mm 320 W/m2
07:58 3.9 °C 1.6 °C 1018.8 hPa North 1.6 km/h 4.8 km/h 85% 0 mm 341 W/m2
08:04 4.2 °C 1.4 °C 1018.8 hPa North 1.6 km/h 6.4 km/h 82% 0 mm 359 W/m2
08:10 4.4 °C 1.3 °C 1018.8 hPa NNW 3.2 km/h 3.2 km/h 80% 0 mm 378 W/m2
08:16 4.8 °C 1.5 °C 1018.8 hPa NNW 1.6 km/h 3.2 km/h 79% 0 mm 397 W/m2
08:22 5.2 °C 1.3 °C 1018.8 hPa NNW 1.6 km/h 4.8 km/h 76% 0 mm 417 W/m2
08:28 5.6 °C 1.5 °C 1018.8 hPa NNW 3.2 km/h 6.4 km/h 75% 0 mm 436 W/m2
08:34 5.8 °C 1 °C 1018.5 hPa NW 3.2 km/h 6.4 km/h 71% 0 mm 450 W/m2
08:40 6 °C 1.3 °C 1018.8 hPa NW 3.2 km/h 4.8 km/h 72% 0 mm 471 W/m2
08:46 6.3 °C 1.2 °C 1018.8 hPa ENE 4.8 km/h 6.4 km/h 70% 0 mm 490 W/m2
08:52 6.6 °C 0.9 °C 1018.8 hPa NE 3.2 km/h 4.8 km/h 67% 0 mm 512 W/m2
08:58 6.7 °C 1.2 °C 1018.8 hPa East 4.8 km/h 9.7 km/h 68% 0 mm 543 W/m2
09:04 7.2 °C 1.2 °C 1018.8 hPa NNE 4.8 km/h 4.8 km/h 66% 0 mm 563 W/m2
09:10 7.1 °C 0.3 °C 1018.5 hPa NE 4.8 km/h 4.8 km/h 62% 0 mm 642 W/m2
09:16 7 °C 0.4 °C 1018.5 hPa NW 4.8 km/h 8 km/h 63% 0 mm 156 W/m2
09:22 6.9 °C 0.3 °C 1018.5 hPa NE 4.8 km/h 4.8 km/h 63% 0 mm 761 W/m2
09:28 7.3 °C 0.3 °C 1018.5 hPa East 4.8 km/h 6.4 km/h 61% 0 mm 807 W/m2
09:34 7.8 °C 0.3 °C 1018.5 hPa North 4.8 km/h 6.4 km/h 59% 0 mm 241 W/m2
09:40 7.4 °C 0.2 °C 1018.5 hPa East 4.8 km/h 4.8 km/h 60% 0 mm 879 W/m2
09:46 7.8 °C 0.1 °C 1018.5 hPa North 3.2 km/h 8 km/h 58% 0 mm 218 W/m2
09:52 7.2 °C -0.1 °C 1018.5 hPa NNE 3.2 km/h 4.8 km/h 60% 0 mm 207 W/m2
09:58 7.7 °C 0.4 °C 1018.5 hPa NW 3.2 km/h 8 km/h 60% 0 mm 248 W/m2
10:04 7.6 °C 0.1 °C 1018.5 hPa NW 3.2 km/h 9.7 km/h 59% 0 mm 264 W/m2
10:10 8.1 °C 0.1 °C 1018.5 hPa NW 4.8 km/h 4.8 km/h 57% 0 mm 214 W/m2
10:16 7.6 °C -0.2 °C 1018.5 hPa NNW 3.2 km/h 4.8 km/h 58% 0 mm 220 W/m2
10:22 7.6 °C 0.3 °C 1018.5 hPa NW 1.6 km/h 4.8 km/h 60% 0 mm 313 W/m2
10:28 7.6 °C -0.4 °C 1018.5 hPa NW 1.6 km/h 6.4 km/h 57% 0 mm 381 W/m2
10:34 7.7 °C -0.5 °C 1018.5 hPa NW 1.6 km/h 4.8 km/h 56% 0 mm 306 W/m2
10:40 8.8 °C 1.5 °C 1018.5 hPa WSW 1.6 km/h 6.4 km/h 60% 0 mm 905 W/m2
10:46 8.4 °C 0.1 °C 1018.5 hPa WSW 1.6 km/h 6.4 km/h 56% 0 mm 285 W/m2
10:52 8.2 °C -0.6 °C 1018.5 hPa NNE 1.6 km/h 3.2 km/h 54% 0 mm 313 W/m2
10:58 8.5 °C 1.4 °C 1018.5 hPa WSW 3.2 km/h 6.4 km/h 61% 0 mm 1116 W/m2
11:04 8.9 °C 0.6 °C 1018.5 hPa West 1.6 km/h 3.2 km/h 56% 0 mm 281 W/m2
11:10 8.5 °C 0.9 °C 1018.5 hPa NNW 1.6 km/h 4.8 km/h 59% 0 mm 290 W/m2
11:16 8.4 °C -0.6 °C 1018.2 hPa ENE 3.2 km/h 8 km/h 53% 0 mm 346 W/m2
11:22 8.3 °C 0.6 °C 1018.2 hPa ENE 3.2 km/h 4.8 km/h 58% 0 mm 575 W/m2
11:28 8.8 °C -0.3 °C 1018.2 hPa ENE 1.6 km/h 4.8 km/h 53% 0 mm 482 W/m2
11:34 8.7 °C -0.3 °C 1018.2 hPa NNW 1.6 km/h 4.8 km/h 53% 0 mm 357 W/m2
11:40 8.5 °C -0.1 °C 1017.8 hPa NW 3.2 km/h 3.2 km/h 55% 0 mm 381 W/m2
11:46 8.7 °C 0.9 °C 1018.2 hPa West 1.6 km/h 6.4 km/h 58% 0 mm 490 W/m2
11:52 8.7 °C -0.1 °C 1018.2 hPa SSE 3.2 km/h 4.8 km/h 54% 0 mm 469 W/m2
11:58 8.7 °C 0.9 °C 1018.2 hPa SSE 3.2 km/h 4.8 km/h 58% 0 mm 483 W/m2
12:04 8.8 °C -0.1 °C 1017.8 hPa NNE 3.2 km/h 6.4 km/h 54% 0 mm 582 W/m2
12:10 9.6 °C -0.1 °C 1018.2 hPa North 3.2 km/h 4.8 km/h 51% 0 mm 534 W/m2
12:16 9.4 °C 0.6 °C 1018.2 hPa WNW 1.6 km/h 4.8 km/h 54% 0 mm 374 W/m2
12:22 9.6 °C -0.4 °C 1017.8 hPa WNW 1.6 km/h 1.6 km/h 50% 0 mm 396 W/m2
12:28 9.3 °C 0.9 °C 1017.8 hPa SW 3.2 km/h 3.2 km/h 56% 0 mm 357 W/m2
12:34 9.2 °C -0.2 °C 1017.8 hPa SSW 3.2 km/h 6.4 km/h 52% 0 mm 334 W/m2
12:40 8.9 °C -0.4 °C 1017.8 hPa South 3.2 km/h 3.2 km/h 52% 0 mm 353 W/m2
12:46 9.1 °C -0.6 °C 1017.8 hPa SSW 3.2 km/h 3.2 km/h 51% 0 mm 394 W/m2
12:52 9.6 °C -0.3 °C 1017.8 hPa South 1.6 km/h 4.8 km/h 50% 0 mm 450 W/m2
12:58 9.4 °C -0.2 °C 1017.8 hPa NNW 3.2 km/h 8 km/h 51% 0 mm 381 W/m2
13:04 9.6 °C -0.1 °C 1017.8 hPa NNW 3.2 km/h 3.2 km/h 51% 0 mm 352 W/m2
13:10 9.8 °C 0.4 °C 1017.8 hPa NNW 1.6 km/h 1.6 km/h 52% 0 mm 380 W/m2
13:16 9.6 °C -0.3 °C 1017.8 hPa Calm   4.8 km/h 50% 0 mm 371 W/m2
13:22 9.5 °C -0.4 °C 1017.8 hPa NW 1.6 km/h 3.2 km/h 50% 0 mm 401 W/m2
13:28 9.8 °C 0.9 °C 1017.8 hPa SW 1.6 km/h 3.2 km/h 54% 0 mm 504 W/m2
13:34 9.8 °C -0.4 °C 1017.8 hPa Calm   4.8 km/h 49% 0 mm 450 W/m2
13:40 9.9 °C 0.3 °C 1017.8 hPa WNW 1.6 km/h 1.6 km/h 51% 0 mm 439 W/m2
13:46 9.9 °C -0.6 °C 1017.8 hPa WSW 1.6 km/h 4.8 km/h 48% 0 mm 406 W/m2
13:52 10.2 °C 0.2 °C 1017.8 hPa NW 3.2 km/h 4.8 km/h 50% 0 mm 387 W/m2
13:58 10.3 °C 0.3 °C 1017.8 hPa North 3.2 km/h 8 km/h 50% 0 mm 374 W/m2
14:04 10.4 °C 0.4 °C 1017.5 hPa NNW 3.2 km/h 3.2 km/h 50% 0 mm 427 W/m2
14:10 10.2 °C 0.8 °C 1017.8 hPa SW 1.6 km/h 1.6 km/h 52% 0 mm 411 W/m2
14:16 10.6 °C 1.1 °C 1017.8 hPa NNE 3.2 km/h 3.2 km/h 52% 0 mm 374 W/m2
14:22 10.7 °C 0.7 °C 1017.8 hPa NW 4.8 km/h 4.8 km/h 50% 0 mm 462 W/m2
14:28 10.6 °C 0 °C 1017.8 hPa South 3.2 km/h 6.4 km/h 48% 0 mm 823 W/m2
14:34 10.9 °C 1.1 °C 1017.8 hPa NNW 3.2 km/h 6.4 km/h 51% 0 mm 455 W/m2
14:40 11.3 °C 0.7 °C 1017.5 hPa NNE 4.8 km/h 4.8 km/h 48% 0 mm 1020 W/m2
14:46 11 °C 0.1 °C 1017.5 hPa NW 4.8 km/h 9.7 km/h 47% 0 mm 325 W/m2
14:52 10.4 °C 0.2 °C 1017.8 hPa NNW 4.8 km/h 4.8 km/h 49% 0 mm 250 W/m2
14:58 10.3 °C -0.2 °C 1017.8 hPa North 3.2 km/h 4.8 km/h 48% 0 mm 199 W/m2
15:04 10.4 °C 0.7 °C 1017.8 hPa North 1.6 km/h 3.2 km/h 51% 0 mm 424 W/m2
15:10 10.7 °C 0.4 °C 1017.5 hPa Calm   6.4 km/h 49% 0 mm 313 W/m2
15:16 10.4 °C -0.1 °C 1017.5 hPa NW 3.2 km/h 8 km/h 48% 0 mm 294 W/m2
15:22 10.3 °C 0.6 °C 1017.5 hPa NNW 4.8 km/h 4.8 km/h 51% 0 mm 346 W/m2
15:28 10.6 °C 0.3 °C 1017.5 hPa NNW 1.6 km/h 4.8 km/h 49% 0 mm 318 W/m2
15:34 10.7 °C 0.7 °C 1017.8 hPa NNW 1.6 km/h 4.8 km/h 50% 0 mm 262 W/m2
15:40 10.6 °C 0.1 °C 1017.5 hPa NE 1.6 km/h 1.6 km/h 48% 0 mm 459 W/m2
15:46 10.7 °C 0.1 °C 1017.5 hPa NNE 4.8 km/h 9.7 km/h 48% 0 mm 422 W/m2
15:52 10.7 °C 0.4 °C 1017.5 hPa ENE 4.8 km/h 4.8 km/h 49% 0 mm 304 W/m2
15:58 11.2 °C 2.4 °C 1017.5 hPa ENE 1.6 km/h 4.8 km/h 55% 0 mm 455 W/m2
16:04 11.1 °C 0.8 °C 1017.5 hPa NE 3.2 km/h 6.4 km/h 49% 0 mm 264 W/m2
16:10 10.7 °C -0.2 °C 1017.5 hPa ENE 4.8 km/h 4.8 km/h 47% 0 mm 294 W/m2
16:16 10.8 °C 1.6 °C 1017.5 hPa NE 3.2 km/h 4.8 km/h 53% 0 mm 322 W/m2
16:22 10.9 °C 0.9 °C 1017.5 hPa ESE 3.2 km/h 3.2 km/h 50% 0 mm 197 W/m2
16:28 10.7 °C 0.7 °C 1017.8 hPa SE 3.2 km/h 3.2 km/h 50% 0 mm 243 W/m2
16:34 10.4 °C 0.2 °C 1017.5 hPa SSE 3.2 km/h 4.8 km/h 49% 0 mm 221 W/m2
16:40 10.6 °C 0.3 °C 1017.5 hPa SSE 1.6 km/h 1.6 km/h 49% 0 mm 236 W/m2
16:46 10.7 °C 1 °C 1017.5 hPa Calm   3.2 km/h 51% 0 mm 216 W/m2
16:52 10.9 °C 0.9 °C 1017.8 hPa East 3.2 km/h 4.8 km/h 50% 0 mm 503 W/m2
16:58 11.2 °C 0.3 °C 1017.8 hPa East 1.6 km/h 4.8 km/h 47% 0 mm 591 W/m2
17:04 11.6 °C 1.2 °C 1017.5 hPa East 1.6 km/h 3.2 km/h 49% 0 mm 197 W/m2
17:10 11.8 °C 1.4 °C 1017.5 hPa ESE 1.6 km/h 1.6 km/h 49% 0 mm 294 W/m2
17:16 11.8 °C 0.6 °C 1017.5 hPa SW 1.6 km/h 3.2 km/h 46% 0 mm 352 W/m2
17:22 11.9 °C 0.9 °C 1017.5 hPa SW 1.6 km/h 3.2 km/h 47% 0 mm 302 W/m2
17:28 11.9 °C 0.9 °C 1017.5 hPa SW 1.6 km/h 3.2 km/h 47% 0 mm 283 W/m2
17:34 11.7 °C 0.4 °C 1017.5 hPa SW 3.2 km/h 6.4 km/h 46% 0 mm 190 W/m2
17:40 11.6 °C 0.4 °C 1017.5 hPa South 3.2 km/h 3.2 km/h 46% 0 mm 158 W/m2
17:46 11.5 °C 1.2 °C 1017.5 hPa West 1.6 km/h 3.2 km/h 49% 0 mm 102 W/m2
17:52 11.7 °C 0.4 °C 1017.5 hPa Calm   4.8 km/h 46% 0 mm 88 W/m2
17:58 11.7 °C 0.7 °C 1017.5 hPa West 1.6 km/h 4.8 km/h 47% 0 mm 109 W/m2
18:04 11.6 °C 0.7 °C 1017.5 hPa NW 1.6 km/h 4.8 km/h 47% 0 mm 91 W/m2
18:10 11.4 °C 0.2 °C 1017.5 hPa NW 3.2 km/h 4.8 km/h 46% 0 mm 63 W/m2
18:16 11.4 °C 1.1 °C 1017.5 hPa NNE 3.2 km/h 6.4 km/h 49% 0 mm 120 W/m2
18:22 11.4 °C 0.8 °C 1017.5 hPa NNW 1.6 km/h 3.2 km/h 48% 0 mm 74 W/m2
18:28 11.4 °C 0.2 °C 1017.5 hPa WSW 1.6 km/h 4.8 km/h 46% 0 mm 65 W/m2
18:34 11.4 °C 0.2 °C 1017.5 hPa WSW 1.6 km/h 1.6 km/h 46% 0 mm 65 W/m2
18:40 11.4 °C 0.4 °C 1017.5 hPa Calm   4.8 km/h 47% 0 mm 60 W/m2
18:46 11.3 °C 0.3 °C 1017.2 hPa NNW 1.6 km/h 4.8 km/h 47% 0 mm 70 W/m2
18:52 11.2 °C 0.6 °C 1017.2 hPa East 1.6 km/h 3.2 km/h 48% 0 mm 56 W/m2
18:58 11.2 °C 0.6 °C 1017.2 hPa East 1.6 km/h 3.2 km/h 48% 0 mm 60 W/m2
19:06 11.2 °C 0.3 °C 1017.5 hPa NNE 3.2 km/h 4.8 km/h 47% 0 mm 62 W/m2
19:12 11.1 °C 0.5 °C 1017.5 hPa North 3.2 km/h 8 km/h 48% 0 mm 81 W/m2
19:18 11 °C 0.4 °C 1017.5 hPa NW 3.2 km/h 8 km/h 48% 0 mm 60 W/m2
19:24 10.8 °C 0.8 °C 1017.5 hPa NW 3.2 km/h 4.8 km/h 50% 0 mm 44 W/m2
19:28 10.7 °C 0.7 °C 1017.5 hPa North 4.8 km/h 4.8 km/h 50% 0 mm 33 W/m2
19:34 10.6 °C 0.8 °C 1017.5 hPa NNW 3.2 km/h 4.8 km/h 51% 0 mm 25 W/m2
19:40 10.2 °C 0.5 °C 1017.5 hPa NNW 3.2 km/h 3.2 km/h 51% 0 mm 21 W/m2
19:46 10 °C 0.6 °C 1017.5 hPa North 4.8 km/h 6.4 km/h 52% 0 mm 21 W/m2
19:52 9.8 °C 0.7 °C 1017.5 hPa NNW 4.8 km/h 4.8 km/h 53% 0 mm 14 W/m2
19:58 9.6 °C 0.7 °C 1017.5 hPa North 3.2 km/h 6.4 km/h 54% 0 mm 9 W/m2
20:04 9.4 °C 0.6 °C 1017.5 hPa North 4.8 km/h 4.8 km/h 54% 0 mm 7 W/m2
20:10 9.1 °C 0.6 °C 1017.5 hPa North 3.2 km/h 6.4 km/h 55% 0 mm 0 W/m2
20:16 8.9 °C 0.6 °C 1017.5 hPa North 3.2 km/h 6.4 km/h 56% 0 mm 0 W/m2
20:22 8.7 °C 0.6 °C 1017.8 hPa North 3.2 km/h 3.2 km/h 57% 0 mm 0 W/m2
20:28 8.4 °C 0.9 °C 1017.8 hPa North 1.6 km/h 3.2 km/h 59% 0 mm 0 W/m2
20:34 8.3 °C 0.7 °C 1017.5 hPa North 1.6 km/h 4.8 km/h 59% 0 mm 0 W/m2
20:40 8.1 °C 0.3 °C 1017.5 hPa North 1.6 km/h 1.6 km/h 58% 0 mm 0 W/m2
20:46 7.9 °C 0.7 °C 1017.5 hPa North 1.6 km/h 3.2 km/h 60% 0 mm 0 W/m2
20:52 7.8 °C 0.9 °C 1017.5 hPa Calm   3.2 km/h 62% 0 mm 0 W/m2
20:58 7.6 °C 0.9 °C 1017.5 hPa Calm   3.2 km/h 63% 0 mm 0 W/m2
21:04 7.3 °C 0.9 °C 1017.8 hPa Calm   3.2 km/h 64% 0 mm 0 W/m2
21:10 7.1 °C 1.2 °C 1017.8 hPa Calm     66% 0 mm 0 W/m2
21:16 6.9 °C 1.2 °C 1017.8 hPa Calm     67% 0 mm 0 W/m2
21:22 6.7 °C 1.2 °C 1017.8 hPa Calm     68% 0 mm 0 W/m2
21:28 6.4 °C 1.4 °C 1017.8 hPa Calm     70% 0 mm 0 W/m2
21:34 6.2 °C 1.2 °C 1017.8 hPa North 1.6 km/h 3.2 km/h 70% 0 mm 0 W/m2
21:40 6.1 °C 1.1 °C 1017.8 hPa North 1.6 km/h 1.6 km/h 70% 0 mm 0 W/m2
21:46 6.1 °C 1 °C 1017.8 hPa North 1.6 km/h 4.8 km/h 70% 0 mm 0 W/m2
21:52 6.1 °C 1 °C 1017.8 hPa North 1.6 km/h 1.6 km/h 70% 0 mm 0 W/m2
21:58 5.9 °C 0.9 °C 1017.8 hPa North 1.6 km/h 3.2 km/h 70% 0 mm 0 W/m2
22:04 5.9 °C 1.1 °C 1018.2 hPa North 1.6 km/h 3.2 km/h 71% 0 mm 0 W/m2
22:10 5.8 °C 0.8 °C 1017.8 hPa Calm     70% 0 mm 0 W/m2
22:16 5.7 °C 0.6 °C 1018.2 hPa Calm     70% 0 mm 0 W/m2
22:22 5.4 °C 0.4 °C 1017.8 hPa Calm     70% 0 mm 0 W/m2
22:28 5.3 °C 0.5 °C 1018.2 hPa Calm     71% 0 mm 0 W/m2
22:34 5.2 °C 0.4 °C 1018.2 hPa Calm     71% 0 mm 0 W/m2
22:40 5.2 °C 0.3 °C 1017.8 hPa Calm     71% 0 mm 0 W/m2
22:46 5.1 °C 0.5 °C 1017.8 hPa Calm     72% 0 mm 0 W/m2
22:52 4.9 °C 0.7 °C 1017.8 hPa Calm     74% 0 mm 0 W/m2
22:58 4.8 °C 0.6 °C 1017.8 hPa Calm     74% 0 mm 0 W/m2
23:04 4.5 °C 0.4 °C 1017.8 hPa Calm     75% 0 mm 0 W/m2
23:12 4.3 °C 0.4 °C 1017.8 hPa Calm     76% 0 mm 0 W/m2
23:18 4.2 °C 0.3 °C 1017.8 hPa Calm     76% 0 mm 0 W/m2
23:24 4.1 °C 0.4 °C 1017.8 hPa Calm     77% 0 mm 0 W/m2
23:30 3.9 °C 0.4 °C 1017.8 hPa Calm     78% 0 mm 0 W/m2
23:36 3.8 °C 0.3 °C 1017.8 hPa Calm     78% 0 mm 0 W/m2
23:42 3.7 °C 0.3 °C 1017.8 hPa Calm     79% 0 mm 0 W/m2
23:48 3.5 °C 0.4 °C 1017.8 hPa Calm     80% 0 mm 0 W/m2
23:54 3.2 °C 0.1 °C 1017.8 hPa Calm     80% 0 mm 0 W/m2
Country Meadow, Clay, NY, USA
Compliments of Weather Underground - 2 mb